Time;durP1;ratioP1;P1;durP2;ratioP2;P2;SDS_P1;SDS_P2;PMS_P1;PMS_P2;Temp;Humidity;BMP_temperature;BMP_pressure;BME280_temperature;BME280_humidity;BME280_pressure;Samples;Min_cycle;Max_cycle;Signal;HPM_P1;HPM_P2
2023/01/16 00:00:35;;;;;;;;;;;;;;;;;;4982025;28;19957;-78
2023/01/16 00:03:01;;;;;;;;;;;;;;;;;;4983824;28;19928;-78
2023/01/16 00:05:27;;;;;;;;;;;;;;;;;;4980056;28;20468;-78
2023/01/16 00:07:53;;;;;;;;;;;;;;;;;;4981212;28;19957;-77
2023/01/16 00:10:20;;;;;;;;;;;;;;;;;;4983256;28;20397;-77
2023/01/16 00:12:46;;;;;;;;;;;;;;;;;;4986108;28;19953;-77
2023/01/16 00:15:12;;;;;;;;;;;;;;;;;;4984605;28;19981;-77
2023/01/16 00:17:38;;;;;;;;;;;;;;;;;;4985029;28;19953;-77
2023/01/16 00:20:05;;;;;;;;;;;;;;;;;;4983818;28;20667;-77
2023/01/16 00:22:31;;;;;;;;;;;;;;;;;;4982352;28;20045;-77
2023/01/16 00:24:57;;;;;;;;;;;;;;;;;;4995290;28;20464;-76
2023/01/16 00:27:23;;;;;;;;;;;;;;;;;;4985444;28;19953;-77
2023/01/16 00:29:50;;;;;;;;;;;;;;;;;;4984403;28;19980;-76
2023/01/16 00:32:16;;;;;;;;;;;;;;;;;;4984817;28;19987;-79
2023/01/16 00:34:42;;;;;;;;;;;;;;;;;;4988189;28;19969;-77
2023/01/16 00:37:08;;;;;;;;;;;;;;;;;;4990738;28;19953;-77
2023/01/16 00:39:37;;;;;;;;;;;;;;;;;;4988332;28;20000;-77
2023/01/16 00:42:04;;;;;;;;;;;;;;;;;;4982809;28;19990;-77
2023/01/16 00:44:30;;;;;;;;;;;;;;;;;;4987884;28;19988;-76
2023/01/16 00:46:56;;;;;;;;;;;;;;;;;;4980829;28;20373;-77
2023/01/16 00:49:22;;;;;;;;;;;;;;;;;;4987071;28;20021;-76
2023/01/16 00:51:48;;;;;;;;;;;;;;;;;;4988853;28;20453;-77
2023/01/16 00:54:22;;;;;;;;;;;;;;;;;;4977476;28;19961;-77
2023/01/16 00:56:48;;;;;;;;;;;;;;;;;;5008501;28;20652;-76
2023/01/16 00:59:14;;;;;;;;;;;;;;;;;;5003209;28;19949;-76
2023/01/16 01:01:40;;;;;;;;;;;;;;;;;;4985960;28;20444;-77
2023/01/16 01:04:07;;;;;;;;;;;;;;;;;;5006248;28;19917;-78
2023/01/16 01:06:33;;;;;;;;;;;;;;;;;;5006185;28;19956;-77
2023/01/16 01:08:59;;;;;;;;;;;;;;;;;;5006350;28;19964;-77
2023/01/16 01:11:25;;;;;;;;;;;;;;;;;;5000047;28;19962;-78
2023/01/16 01:13:52;;;;;;;;;;;;;;;;;;4986814;28;19965;-78
2023/01/16 01:16:18;;;;;;;;;;;;;;;;;;5002017;28;20361;-78
2023/01/16 01:18:44;;;;;;;;;;;;;;;;;;4990028;28;19968;-77
2023/01/16 01:21:10;;;;;;;;;;;;;;;;;;4989577;28;19945;-77
2023/01/16 01:23:36;;;;;;;;;;;;;;;;;;5023525;28;19906;-78
2023/01/16 01:26:03;;;;;;;;;;;;;;;;;;5032657;28;19928;-77
2023/01/16 01:28:29;;;;;;;;;;;;;;;;;;5034041;28;19909;-79
2023/01/16 01:30:55;;;;;;;;;;;;;;;;;;5015916;28;19926;-77
2023/01/16 01:33:21;;;;;;;;;;;;;;;;;;4988849;28;19945;-77
2023/01/16 01:35:47;;;;;;;;;;;;;;;;;;4989652;28;20342;-77
2023/01/16 01:38:14;;;;;;;;;;;;;;;;;;5003113;28;19961;-78
2023/01/16 01:40:40;;;;;;;;;;;;;;;;;;5006104;28;20400;-77
2023/01/16 01:43:06;;;;;;;;;;;;;;;;;;5005624;28;19964;-78
2023/01/16 01:45:32;;;;;;;;;;;;;;;;;;4988401;28;20130;-77
2023/01/16 01:47:59;;;;;;;;;;;;;;;;;;4962736;28;19995;-77
2023/01/16 01:50:25;;;;;;;;;;;;;;;;;;5002789;28;21007;-77
2023/01/16 01:53:10;;;;;;;;;;;;;;;;;;5003631;28;19999;-78
2023/01/16 01:55:56;;;;;;;;;;;;;;;;;;5005820;28;20313;-79
2023/01/16 01:58:43;;;;;;;;;;;;;;;;;;5003923;28;20269;-78
2023/01/16 02:01:29;;;;;;;;;;;;;;;;;;5000346;28;20012;-77
2023/01/16 02:04:17;;;;;;;;;;;;;;;;;;5012123;28;20313;-77
2023/01/16 02:07:03;;;;;;;;;;;;;;;;;;5000182;28;19920;-77
2023/01/16 02:09:50;;;;;;;;;;;;;;;;;;5001159;28;20416;-80
2023/01/16 02:12:36;;;;;;;;;;;;;;;;;;4989375;28;19928;-77
2023/01/16 02:15:23;;;;;;;;;;;;;;;;;;5012631;28;20396;-79
2023/01/16 02:21:15;;;;;;;;;;;;;;;;;;4993071;28;19921;-78
2023/01/16 02:24:01;;;;;;;;;;;;;;;;;;5014153;28;19924;-77
2023/01/16 02:26:48;;;;;;;;;;;;;;;;;;5001466;28;19913;-78
2023/01/16 02:29:34;;;;;;;;;;;;;;;;;;5006089;28;19917;-77
2023/01/16 02:32:20;;;;;;;;;;;;;;;;;;5002933;28;20030;-77
2023/01/16 02:35:07;;;;;;;;;;;;;;;;;;5001710;28;19917;-76
2023/01/16 02:37:53;;;;;;;;;;;;;;;;;;5007603;28;19917;-77
2023/01/16 02:40:40;;;;;;;;;;;;;;;;;;5009855;28;19920;-77
2023/01/16 02:43:26;;;;;;;;;;;;;;;;;;5009423;28;19910;-77
2023/01/16 02:46:13;;;;;;;;;;;;;;;;;;5005326;28;19913;-77
2023/01/16 02:49:00;;;;;;;;;;;;;;;;;;5004828;28;19928;-77
2023/01/16 02:51:46;;;;;;;;;;;;;;;;;;5000995;28;19914;-77
2023/01/16 02:54:33;;;;;;;;;;;;;;;;;;4940472;28;1817865;-77
2023/01/16 02:57:19;;;;;;;;;;;;;;;;;;5005721;28;19924;-77
2023/01/16 03:00:05;;;;;;;;;;;;;;;;;;5004913;28;19909;-77
2023/01/16 03:02:52;;;;;;;;;;;;;;;;;;5006947;28;19917;-77
2023/01/16 03:05:38;;;;;;;;;;;;;;;;;;5004746;28;19918;-78
2023/01/16 03:08:25;;;;;;;;;;;;;;;;;;4992928;28;19913;-78
2023/01/16 03:11:11;;;;;;;;;;;;;;;;;;5004967;28;19925;-78
2023/01/16 03:13:58;;;;;;;;;;;;;;;;;;4996290;28;19920;-78
2023/01/16 03:16:44;;;;;;;;;;;;;;;;;;4998996;28;20693;-77
2023/01/16 03:19:31;;;;;;;;;;;;;;;;;;5006010;28;21034;-77
2023/01/16 03:22:17;;;;;;;;;;;;;;;;;;5001595;28;19914;-78
2023/01/16 03:25:04;;;;;;;;;;;;;;;;;;5006068;28;20420;-78
2023/01/16 03:27:50;;;;;;;;;;;;;;;;;;5001262;28;19913;-78
2023/01/16 03:30:37;;;;;;;;;;;;;;;;;;5006045;28;19928;-78
2023/01/16 03:33:23;;;;;;;;;;;;;;;;;;5002407;28;19918;-78
2023/01/16 03:36:10;;;;;;;;;;;;;;;;;;5005892;28;19933;-78
2023/01/16 03:38:56;;;;;;;;;;;;;;;;;;5007543;28;19916;-79
2023/01/16 03:41:43;;;;;;;;;;;;;;;;;;5003980;28;19922;-76
2023/01/16 03:44:29;;;;;;;;;;;;;;;;;;5005881;28;19913;-77
2023/01/16 03:47:18;;;;;;;;;;;;;;;;;;5014339;28;20428;-77
2023/01/16 03:50:04;;;;;;;;;;;;;;;;;;5003631;28;19932;-76
2023/01/16 03:52:51;;;;;;;;;;;;;;;;;;4993394;28;19924;-77
2023/01/16 03:55:37;;;;;;;;;;;;;;;;;;5000621;28;19948;-76
2023/01/16 03:58:24;;;;;;;;;;;;;;;;;;5007044;28;19921;-76
2023/01/16 04:01:10;;;;;;;;;;;;;;;;;;5003600;28;19921;-77
2023/01/16 04:03:57;;;;;;;;;;;;;;;;;;5004889;28;20404;-76
2023/01/16 04:06:43;;;;;;;;;;;;;;;;;;5006229;28;19921;-76
2023/01/16 04:09:30;;;;;;;;;;;;;;;;;;5016836;28;19925;-77
2023/01/16 04:12:19;;;;;;;;;;;;;;;;;;5002678;28;19913;-76
2023/01/16 04:15:06;;;;;;;;;;;;;;;;;;5008791;28;19923;-77
2023/01/16 04:17:52;;;;;;;;;;;;;;;;;;5008194;28;19922;-77
2023/01/16 04:20:39;;;;;;;;;;;;;;;;;;5007938;28;19914;-77
2023/01/16 04:23:25;;;;;;;;;;;;;;;;;;5009496;28;19918;-77
2023/01/16 04:26:12;;;;;;;;;;;;;;;;;;5009237;28;19929;-77
2023/01/16 04:28:58;;;;;;;;;;;;;;;;;;5008286;28;20570;-77
2023/01/16 04:31:45;;;;;;;;;;;;;;;;;;5006268;28;19913;-76
2023/01/16 04:34:31;;;;;;;;;;;;;;;;;;5008791;28;19937;-76
2023/01/16 04:37:18;;;;;;;;;;;;;;;;;;5003614;28;21121;-76
2023/01/16 04:40:04;;;;;;;;;;;;;;;;;;5014517;28;19920;-76
2023/01/16 04:42:51;;;;;;;;;;;;;;;;;;5032882;28;19897;-76
2023/01/16 04:45:40;;;;;;;;;;;;;;;;;;5036203;28;19904;-77
2023/01/16 04:48:26;;;;;;;;;;;;;;;;;;5017503;28;19917;-77
2023/01/16 04:51:13;;;;;;;;;;;;;;;;;;5007325;28;19929;-77
2023/01/16 04:53:59;;;;;;;;;;;;;;;;;;5010442;28;19909;-76
2023/01/16 04:56:46;;;;;;;;;;;;;;;;;;4996972;28;19932;-77
2023/01/16 04:59:32;;;;;;;;;;;;;;;;;;5006166;28;19917;-77
2023/01/16 05:02:19;;;;;;;;;;;;;;;;;;5009996;28;19925;-77
2023/01/16 05:05:05;;;;;;;;;;;;;;;;;;5005929;28;20387;-78
2023/01/16 05:11:00;;;;;;;;;;;;;;;;;;5000115;28;19925;-78
2023/01/16 05:13:47;;;;;;;;;;;;;;;;;;5000737;28;20620;-77
2023/01/16 05:16:33;;;;;;;;;;;;;;;;;;4999657;28;19921;-78
2023/01/16 05:19:20;;;;;;;;;;;;;;;;;;5007477;28;19936;-77
2023/01/16 05:22:06;;;;;;;;;;;;;;;;;;5007125;28;20381;-78
2023/01/16 05:24:53;;;;;;;;;;;;;;;;;;5007007;28;19917;-77
2023/01/16 05:27:39;;;;;;;;;;;;;;;;;;5009065;28;19924;-77
2023/01/16 05:30:26;;;;;;;;;;;;;;;;;;4986762;28;20379;-78
2023/01/16 05:33:12;;;;;;;;;;;;;;;;;;4989499;28;19920;-77
2023/01/16 05:35:59;;;;;;;;;;;;;;;;;;5001637;28;19914;-77
2023/01/16 05:38:46;;;;;;;;;;;;;;;;;;5008902;28;19917;-77
2023/01/16 05:41:32;;;;;;;;;;;;;;;;;;5009350;28;19921;-78
2023/01/16 05:44:19;;;;;;;;;;;;;;;;;;5005360;28;20633;-78
2023/01/16 05:47:05;;;;;;;;;;;;;;;;;;5007611;28;19916;-78
2023/01/16 05:49:52;;;;;;;;;;;;;;;;;;5008921;28;20473;-77
2023/01/16 05:52:38;;;;;;;;;;;;;;;;;;5006955;28;19924;-77
2023/01/16 05:55:25;;;;;;;;;;;;;;;;;;5007109;28;20329;-77
2023/01/16 05:58:11;;;;;;;;;;;;;;;;;;4987044;28;19918;-78
2023/01/16 06:00:58;;;;;;;;;;;;;;;;;;5006831;28;19913;-77
2023/01/16 06:03:44;;;;;;;;;;;;;;;;;;5006995;28;20320;-78
2023/01/16 06:06:30;;;;;;;;;;;;;;;;;;5008956;28;19920;-77
2023/01/16 06:09:17;;;;;;;;;;;;;;;;;;5005904;28;19917;-77
2023/01/16 06:12:03;;;;;;;;;;;;;;;;;;5005684;28;19917;-78
2023/01/16 06:14:50;;;;;;;;;;;;;;;;;;5006695;28;19920;-78
2023/01/16 06:17:36;;;;;;;;;;;;;;;;;;5008728;28;19910;-78
2023/01/16 06:20:23;;;;;;;;;;;;;;;;;;5008598;28;20520;-78
2023/01/16 06:23:09;;;;;;;;;;;;;;;;;;4991955;28;19914;-78
2023/01/16 06:25:56;;;;;;;;;;;;;;;;;;5006506;28;19936;-78
2023/01/16 06:28:42;;;;;;;;;;;;;;;;;;5007104;28;19917;-76
2023/01/16 06:31:29;;;;;;;;;;;;;;;;;;4998794;28;19927;-77
2023/01/16 06:34:15;;;;;;;;;;;;;;;;;;5006614;28;19918;-78
2023/01/16 06:37:02;;;;;;;;;;;;;;;;;;5006574;28;19917;-78
2023/01/16 06:39:48;;;;;;;;;;;;;;;;;;5002253;28;20094;-78
2023/01/16 06:42:35;;;;;;;;;;;;;;;;;;5008317;28;20300;-78
2023/01/16 06:45:21;;;;;;;;;;;;;;;;;;5005313;28;19966;-78
2023/01/16 06:48:08;;;;;;;;;;;;;;;;;;5000088;28;19920;-78
2023/01/16 06:50:54;;;;;;;;;;;;;;;;;;5002064;28;19936;-78
2023/01/16 06:53:41;;;;;;;;;;;;;;;;;;5007854;28;20420;-78
2023/01/16 06:56:27;;;;;;;;;;;;;;;;;;5005177;28;20439;-77
2023/01/16 06:59:14;;;;;;;;;;;;;;;;;;5006597;28;19917;-78
2023/01/16 07:02:00;;;;;;;;;;;;;;;;;;5006484;28;20285;-78
2023/01/16 07:04:47;;;;;;;;;;;;;;;;;;5006227;28;19925;-77
2023/01/16 07:07:33;;;;;;;;;;;;;;;;;;5018506;28;19918;-77
2023/01/16 07:10:20;;;;;;;;;;;;;;;;;;5002928;28;19944;-77
2023/01/16 07:13:06;;;;;;;;;;;;;;;;;;5006593;28;19914;-78
2023/01/16 07:22:38;;;;;;;;;;;;;;;;;;4943810;28;20977;-77
2023/01/16 07:25:24;;;;;;;;;;;;;;;;;;5002510;28;19914;-76
2023/01/16 07:28:11;;;;;;;;;;;;;;;;;;5003892;28;19920;-77
2023/01/16 07:30:57;;;;;;;;;;;;;;;;;;4997391;28;20596;-78
2023/01/16 07:33:44;;;;;;;;;;;;;;;;;;5000947;28;20364;-78
2023/01/16 07:36:30;;;;;;;;;;;;;;;;;;5001261;28;19913;-77
2023/01/16 07:39:17;;;;;;;;;;;;;;;;;;5004130;28;19913;-77
2023/01/16 07:42:03;;;;;;;;;;;;;;;;;;4999986;28;19928;-78
2023/01/16 07:44:50;;;;;;;;;;;;;;;;;;5006865;28;19918;-76
2023/01/16 07:47:36;;;;;;;;;;;;;;;;;;5001339;28;20289;-76
2023/01/16 07:50:22;;;;;;;;;;;;;;;;;;5004821;28;19921;-76
2023/01/16 07:53:09;;;;;;;;;;;;;;;;;;5004592;28;19917;-76
2023/01/16 07:55:55;;;;;;;;;;;;;;;;;;5003093;28;20499;-77
2023/01/16 07:58:42;;;;;;;;;;;;;;;;;;5003433;28;19920;-76
2023/01/16 08:01:29;;;;;;;;;;;;;;;;;;5008119;28;19918;-77
2023/01/16 08:04:15;;;;;;;;;;;;;;;;;;5026718;28;19910;-76
2023/01/16 08:07:02;;;;;;;;;;;;;;;;;;5025784;28;20349;-77
2023/01/16 08:09:48;;;;;;;;;;;;;;;;;;5010071;28;19921;-77
2023/01/16 08:12:35;;;;;;;;;;;;;;;;;;5012143;28;19918;-76
2023/01/16 08:15:21;;;;;;;;;;;;;;;;;;5003020;28;19925;-75
2023/01/16 08:18:09;;;;;;;;;;;;;;;;;;5001316;28;20400;-76
2023/01/16 08:20:55;;;;;;;;;;;;;;;;;;5004811;28;19921;-75
2023/01/16 08:23:42;;;;;;;;;;;;;;;;;;5007908;28;19910;-76
2023/01/16 08:26:29;;;;;;;;;;;;;;;;;;5004165;28;19925;-76
2023/01/16 08:29:15;;;;;;;;;;;;;;;;;;5005589;28;19913;-77
2023/01/16 08:32:02;;;;;;;;;;;;;;;;;;5002361;28;19956;-76
2023/01/16 08:34:48;;;;;;;;;;;;;;;;;;5008186;28;19918;-76
2023/01/16 08:37:35;;;;;;;;;;;;;;;;;;5007901;28;19917;-76
2023/01/16 08:40:21;;;;;;;;;;;;;;;;;;5001248;28;20543;-76
2023/01/16 08:52:26;;;;;;;;;;;;;;;;;;4998200;28;20598;-76
2023/01/16 08:55:13;;;;;;;;;;;;;;;;;;5003666;28;19925;-76
2023/01/16 08:57:59;;;;;;;;;;;;;;;;;;5016420;28;19913;-76
2023/01/16 09:00:46;;;;;;;;;;;;;;;;;;5009176;28;19924;-76
2023/01/16 09:03:35;;;;;;;;;;;;;;;;;;5008044;28;19909;-76
2023/01/16 09:06:22;;;;;;;;;;;;;;;;;;5009608;28;19932;-76
2023/01/16 09:09:09;;;;;;;;;;;;;;;;;;5009313;28;19924;-76
2023/01/16 09:15:00;;;;;;;;;;;;;;;;;;5007098;28;19924;-76
2023/01/16 09:17:47;;;;;;;;;;;;;;;;;;5009399;28;19918;-76
2023/01/16 09:20:33;;;;;;;;;;;;;;;;;;4993847;28;20016;-75
2023/01/16 09:23:20;;;;;;;;;;;;;;;;;;5010067;28;19914;-75
2023/01/16 09:26:07;;;;;;;;;;;;;;;;;;5015782;28;19913;-76
2023/01/16 09:28:53;;;;;;;;;;;;;;;;;;5010218;28;20172;-76
2023/01/16 09:31:40;;;;;;;;;;;;;;;;;;5007832;28;19932;-76
2023/01/16 09:34:26;;;;;;;;;;;;;;;;;;5009893;28;19935;-76
2023/01/16 09:37:13;;;;;;;;;;;;;;;;;;5008656;28;19914;-77
2023/01/16 09:39:59;;;;;;;;;;;;;;;;;;5008803;28;19918;-76
2023/01/16 09:45:50;;;;;;;;;;;;;;;;;;5009083;28;19924;-77
2023/01/16 09:48:37;;;;;;;;;;;;;;;;;;5007111;28;19928;-77
2023/01/16 09:51:24;;;;;;;;;;;;;;;;;;5008614;28;19925;-77
2023/01/16 10:00:21;;;;;;;;;;;;;;;;;;5001506;28;20398;-77
2023/01/16 10:03:07;;;;;;;;;;;;;;;;;;5008995;28;19917;-77
2023/01/16 10:05:54;;;;;;;;;;;;;;;;;;5008923;28;19921;-77
2023/01/16 10:08:40;;;;;;;;;;;;;;;;;;5008056;28;19925;-77
2023/01/16 10:11:27;;;;;;;;;;;;;;;;;;4994957;28;19921;-77
2023/01/16 10:14:13;;;;;;;;;;;;;;;;;;5008957;28;20375;-76
2023/01/16 10:17:00;;;;;;;;;;;;;;;;;;5008397;28;19917;-76
2023/01/16 10:19:46;;;;;;;;;;;;;;;;;;5007541;28;19941;-76
2023/01/16 10:22:33;;;;;;;;;;;;;;;;;;5008165;28;19914;-78
2023/01/16 10:25:19;;;;;;;;;;;;;;;;;;4998181;28;19920;-76
2023/01/16 10:28:06;;;;;;;;;;;;;;;;;;5004659;28;19917;-77
2023/01/16 10:30:52;;;;;;;;;;;;;;;;;;4996824;28;19922;-77
2023/01/16 10:33:38;;;;;;;;;;;;;;;;;;5006780;28;19993;-77
2023/01/16 10:36:25;;;;;;;;;;;;;;;;;;5009312;28;19917;-77
2023/01/16 10:39:12;;;;;;;;;;;;;;;;;;5006034;28;19915;-77
2023/01/16 10:51:13;;;;;;;;;;;;;;;;;;4998417;28;19968;-76
2023/01/16 10:54:00;;;;;;;;;;;;;;;;;;5007869;28;19914;-77
2023/01/16 10:56:46;;;;;;;;;;;;;;;;;;5005264;28;19960;-77
2023/01/16 10:59:33;;;;;;;;;;;;;;;;;;4993455;28;19921;-77
2023/01/16 11:02:22;;;;;;;;;;;;;;;;;;5008334;28;19909;-77
2023/01/16 11:05:09;;;;;;;;;;;;;;;;;;5000053;28;19914;-76
2023/01/16 11:07:55;;;;;;;;;;;;;;;;;;5017518;28;19913;-76
2023/01/16 11:10:42;;;;;;;;;;;;;;;;;;5004075;28;19927;-77
2023/01/16 11:19:40;;;;;;;;;;;;;;;;;;5010682;28;20121;-77
2023/01/16 11:22:26;;;;;;;;;;;;;;;;;;5023981;28;19917;-77
2023/01/16 11:25:13;;;;;;;;;;;;;;;;;;5029059;28;19902;-77
2023/01/16 11:28:02;;;;;;;;;;;;;;;;;;5027371;28;19920;-77
2023/01/16 11:30:48;;;;;;;;;;;;;;;;;;5013066;28;19917;-77
2023/01/16 11:33:35;;;;;;;;;;;;;;;;;;5006943;28;19918;-76
2023/01/16 11:36:21;;;;;;;;;;;;;;;;;;5009045;28;19909;-76
2023/01/16 11:39:08;;;;;;;;;;;;;;;;;;5006974;28;19918;-76
2023/01/16 11:41:54;;;;;;;;;;;;;;;;;;5008656;28;19917;-76
2023/01/16 11:47:46;;;;;;;;;;;;;;;;;;5007257;28;19914;-76
2023/01/16 11:50:32;;;;;;;;;;;;;;;;;;5004258;28;19941;-75
2023/01/16 11:53:19;;;;;;;;;;;;;;;;;;4999340;28;19917;-76
2023/01/16 11:56:06;;;;;;;;;;;;;;;;;;5003634;28;19925;-76
2023/01/16 11:58:52;;;;;;;;;;;;;;;;;;5000846;28;20331;-76
2023/01/16 12:02:15;;;;;;;;;;;;;;;;;;5012034;28;19913;-77
2023/01/16 12:05:53;;;;;;;;;;;;;;;;;;5002724;28;19913;-76
2023/01/16 12:07:52;;;;;;;;;;;;;;;;;;5004100;28;20282;-76
2023/01/16 12:10:39;;;;;;;;;;;;;;;;;;5001861;28;19936;-76
2023/01/16 12:16:30;;;;;;;;;;;;;;;;;;4998768;28;20369;-76
2023/01/16 12:19:16;;;;;;;;;;;;;;;;;;5007404;28;19913;-76
2023/01/16 12:22:03;;;;;;;;;;;;;;;;;;5005775;28;19940;-76
2023/01/16 12:24:49;;;;;;;;;;;;;;;;;;5001663;28;19928;-76
2023/01/16 12:27:36;;;;;;;;;;;;;;;;;;5004238;28;19917;-76
2023/01/16 12:30:23;;;;;;;;;;;;;;;;;;4995703;28;19929;-76
2023/01/16 12:33:17;;;;;;;;;;;;;;;;;;5008985;28;20285;-77
2023/01/16 12:36:03;;;;;;;;;;;;;;;;;;5012125;28;19917;-76
2023/01/16 12:38:50;;;;;;;;;;;;;;;;;;4997899;28;20369;-77
2023/01/16 12:44:43;;;;;;;;;;;;;;;;;;4977620;28;19918;-76
2023/01/16 12:47:29;;;;;;;;;;;;;;;;;;5002018;28;19914;-77
2023/01/16 12:50:16;;;;;;;;;;;;;;;;;;5009010;28;19922;-77
2023/01/16 12:53:02;;;;;;;;;;;;;;;;;;5005666;28;20277;-75
2023/01/16 12:55:49;;;;;;;;;;;;;;;;;;5008660;28;19922;-75
2023/01/16 12:58:35;;;;;;;;;;;;;;;;;;4999330;28;20380;-76
2023/01/16 13:01:22;;;;;;;;;;;;;;;;;;5006127;28;19925;-77
2023/01/16 13:04:08;;;;;;;;;;;;;;;;;;5000562;28;20373;-77
2023/01/16 13:06:55;;;;;;;;;;;;;;;;;;5003148;28;19913;-76
2023/01/16 13:09:41;;;;;;;;;;;;;;;;;;5004600;28;20542;-76
2023/01/16 13:15:33;;;;;;;;;;;;;;;;;;5005721;28;19917;-77
2023/01/16 13:18:19;;;;;;;;;;;;;;;;;;5000118;28;19914;-76
2023/01/16 13:21:06;;;;;;;;;;;;;;;;;;5003607;28;20405;-77
2023/01/16 13:23:52;;;;;;;;;;;;;;;;;;5003303;28;19917;-77
2023/01/16 13:26:39;;;;;;;;;;;;;;;;;;5000155;28;20254;-77
2023/01/16 13:29:25;;;;;;;;;;;;;;;;;;5004724;28;19920;-75
2023/01/16 13:32:12;;;;;;;;;;;;;;;;;;5003944;28;19933;-75
2023/01/16 13:34:58;;;;;;;;;;;;;;;;;;5014989;28;19943;-75
2023/01/16 13:37:45;;;;;;;;;;;;;;;;;;5008699;28;19924;-75
2023/01/16 13:40:33;;;;;;;;;;;;;;;;;;4999516;28;20441;-75
2023/01/16 13:46:25;;;;;;;;;;;;;;;;;;5006672;28;19929;-76
2023/01/16 13:49:11;;;;;;;;;;;;;;;;;;5009777;28;19910;-75
2023/01/16 13:51:58;;;;;;;;;;;;;;;;;;5009249;28;20293;-75
2023/01/16 13:54:46;;;;;;;;;;;;;;;;;;5004495;28;19934;-75
2023/01/16 13:57:32;;;;;;;;;;;;;;;;;;5008327;28;19955;-75
2023/01/16 14:00:19;;;;;;;;;;;;;;;;;;5005791;28;19921;-76
2023/01/16 14:03:05;;;;;;;;;;;;;;;;;;5005679;28;19917;-76
2023/01/16 14:05:52;;;;;;;;;;;;;;;;;;5007061;28;19936;-76
2023/01/16 14:11:44;;;;;;;;;;;;;;;;;;5003699;28;20314;-76
2023/01/16 14:17:35;;;;;;;;;;;;;;;;;;5008298;28;19917;-76
2023/01/16 14:20:22;;;;;;;;;;;;;;;;;;5006890;28;19921;-76
2023/01/16 14:26:13;;;;;;;;;;;;;;;;;;5002473;28;19933;-75
2023/01/16 14:29:00;;;;;;;;;;;;;;;;;;4996670;28;19913;-75
2023/01/16 14:31:46;;;;;;;;;;;;;;;;;;4999133;28;19976;-77
2023/01/16 14:34:33;;;;;;;;;;;;;;;;;;4992762;28;19925;-75
2023/01/16 14:37:19;;;;;;;;;;;;;;;;;;5000061;28;19910;-75
2023/01/16 14:40:05;;;;;;;;;;;;;;;;;;5007841;28;20581;-75
2023/01/16 14:55:13;;;;;;;;;;;;;;;;;;5006156;28;19926;-76
2023/01/16 14:57:59;;;;;;;;;;;;;;;;;;5002968;28;19914;-75
2023/01/16 15:00:46;;;;;;;;;;;;;;;;;;5006395;28;20373;-76
2023/01/16 15:03:33;;;;;;;;;;;;;;;;;;5008608;28;19917;-76
2023/01/16 15:06:20;;;;;;;;;;;;;;;;;;5008521;28;20275;-76
2023/01/16 15:09:06;;;;;;;;;;;;;;;;;;5007380;28;19920;-76
2023/01/16 15:11:53;;;;;;;;;;;;;;;;;;5003866;28;20301;-78
2023/01/16 15:14:39;;;;;;;;;;;;;;;;;;5012444;28;19909;-78
2023/01/16 15:23:36;;;;;;;;;;;;;;;;;;5003983;28;19928;-77
2023/01/16 15:26:23;;;;;;;;;;;;;;;;;;5003795;28;19913;-76
2023/01/16 15:29:09;;;;;;;;;;;;;;;;;;5008531;28;19921;-76
2023/01/16 15:32:02;;;;;;;;;;;;;;;;;;5002862;28;19925;-77
2023/01/16 15:34:48;;;;;;;;;;;;;;;;;;4990479;28;20732;-78
2023/01/16 15:37:35;;;;;;;;;;;;;;;;;;5006132;28;19933;-75
2023/01/16 15:40:21;;;;;;;;;;;;;;;;;;5006255;28;20353;-78
2023/01/16 15:49:18;;;;;;;;;;;;;;;;;;5005469;28;19925;-77
2023/01/16 15:52:05;;;;;;;;;;;;;;;;;;5004036;28;19927;-77
2023/01/16 15:54:51;;;;;;;;;;;;;;;;;;5006352;28;19924;-77
2023/01/16 15:57:38;;;;;;;;;;;;;;;;;;5006068;28;19913;-77
2023/01/16 16:00:24;;;;;;;;;;;;;;;;;;5003018;28;19924;-75
2023/01/16 16:03:11;;;;;;;;;;;;;;;;;;5002496;28;20292;-75
2023/01/16 16:05:57;;;;;;;;;;;;;;;;;;4997935;28;19918;-76
2023/01/16 16:08:44;;;;;;;;;;;;;;;;;;5006740;28;19913;-77
2023/01/16 16:17:56;;;;;;;;;;;;;;;;;;5003935;28;19917;-78
2023/01/16 16:20:43;;;;;;;;;;;;;;;;;;5004099;28;20378;-77
2023/01/16 16:23:30;;;;;;;;;;;;;;;;;;5004961;28;19920;-77
2023/01/16 16:26:17;;;;;;;;;;;;;;;;;;5008541;28;19941;-77
2023/01/16 16:29:03;;;;;;;;;;;;;;;;;;5008635;28;19925;-78
2023/01/16 16:31:50;;;;;;;;;;;;;;;;;;5003044;28;19930;-78
2023/01/16 16:34:36;;;;;;;;;;;;;;;;;;5000417;28;19925;-78
2023/01/16 16:37:23;;;;;;;;;;;;;;;;;;5000152;28;19925;-76
2023/01/16 16:40:09;;;;;;;;;;;;;;;;;;5004549;28;20317;-76
2023/01/16 16:42:56;;;;;;;;;;;;;;;;;;4999675;28;19929;-78
2023/01/16 16:45:43;;;;;;;;;;;;;;;;;;5005927;28;20251;-77
2023/01/16 16:48:29;;;;;;;;;;;;;;;;;;5002742;28;19925;-78
2023/01/16 16:51:16;;;;;;;;;;;;;;;;;;5002597;28;19937;-76
2023/01/16 16:54:02;;;;;;;;;;;;;;;;;;5002207;28;19917;-77
2023/01/16 16:56:48;;;;;;;;;;;;;;;;;;5003953;28;19925;-78
2023/01/16 16:59:37;;;;;;;;;;;;;;;;;;4996615;28;19913;-77
2023/01/16 17:02:23;;;;;;;;;;;;;;;;;;5006000;28;19924;-77
2023/01/16 17:05:10;;;;;;;;;;;;;;;;;;5006199;28;19913;-77
2023/01/16 17:07:57;;;;;;;;;;;;;;;;;;5007377;28;19913;-77
2023/01/16 17:10:48;;;;;;;;;;;;;;;;;;4998619;28;19929;-77
2023/01/16 17:13:35;;;;;;;;;;;;;;;;;;5004027;28;19927;-77
2023/01/16 17:16:21;;;;;;;;;;;;;;;;;;4999376;28;19920;-77
2023/01/16 17:19:08;;;;;;;;;;;;;;;;;;5007134;28;19914;-77
2023/01/16 17:21:54;;;;;;;;;;;;;;;;;;5004184;28;19918;-77
2023/01/16 17:24:41;;;;;;;;;;;;;;;;;;5005833;28;19996;-78
2023/01/16 17:27:27;;;;;;;;;;;;;;;;;;5004593;28;19914;-77
2023/01/16 17:30:14;;;;;;;;;;;;;;;;;;5009643;28;19921;-77
2023/01/16 17:33:00;;;;;;;;;;;;;;;;;;4995294;28;20383;-78
2023/01/16 17:35:47;;;;;;;;;;;;;;;;;;5002016;28;20396;-79
2023/01/16 17:38:33;;;;;;;;;;;;;;;;;;5006802;28;19922;-78
2023/01/16 17:45:51;;;;;;;;;;;;;;;;;;5006995;28;19928;-77
2023/01/16 17:47:47;;;;;;;;;;;;;;;;;;5007714;28;19916;-78
2023/01/16 17:50:33;;;;;;;;;;;;;;;;;;5007157;28;20817;-78
2023/01/16 17:53:20;;;;;;;;;;;;;;;;;;5007091;28;19914;-79
2023/01/16 17:56:06;;;;;;;;;;;;;;;;;;5003746;28;19930;-78
2023/01/16 17:58:56;;;;;;;;;;;;;;;;;;5009701;28;19914;-79
2023/01/16 18:01:43;;;;;;;;;;;;;;;;;;5009550;28;19926;-77
2023/01/16 18:04:32;;;;;;;;;;;;;;;;;;5024737;28;19909;-76
2023/01/16 18:07:19;;;;;;;;;;;;;;;;;;5024168;28;19908;-77
2023/01/16 18:10:05;;;;;;;;;;;;;;;;;;5020681;28;19921;-78
2023/01/16 18:19:06;;;;;;;;;;;;;;;;;;5008330;28;19913;-77
2023/01/16 18:21:59;;;;;;;;;;;;;;;;;;5003223;28;19914;-78
2023/01/16 18:24:46;;;;;;;;;;;;;;;;;;4999511;28;19914;-78
2023/01/16 18:27:32;;;;;;;;;;;;;;;;;;5012916;28;19940;-78
2023/01/16 18:30:19;;;;;;;;;;;;;;;;;;5010510;28;19917;-77
2023/01/16 18:33:05;;;;;;;;;;;;;;;;;;5001028;28;20625;-77
2023/01/16 18:35:51;;;;;;;;;;;;;;;;;;5000851;28;19920;-79
2023/01/16 19:03:20;;;;;;;;;;;;;;;;;;4958771;28;19918;-77
2023/01/16 19:06:06;;;;;;;;;;;;;;;;;;4965480;28;19923;-76
2023/01/16 19:08:54;;;;;;;;;;;;;;;;;;4968707;28;19918;-77
2023/01/16 19:11:40;;;;;;;;;;;;;;;;;;4958081;28;19918;-77
2023/01/16 19:14:27;;;;;;;;;;;;;;;;;;4966666;28;19918;-77
2023/01/16 19:17:13;;;;;;;;;;;;;;;;;;4963745;28;19922;-77
2023/01/16 19:20:00;;;;;;;;;;;;;;;;;;4963567;28;20377;-77
2023/01/16 19:22:47;;;;;;;;;;;;;;;;;;4964585;28;19933;-78
2023/01/16 19:25:33;;;;;;;;;;;;;;;;;;4957770;28;20300;-79
2023/01/16 19:28:20;;;;;;;;;;;;;;;;;;4964737;28;19925;-79
2023/01/16 19:31:07;;;;;;;;;;;;;;;;;;4963858;28;19976;-80
2023/01/16 19:33:55;;;;;;;;;;;;;;;;;;4962271;28;19924;-79
2023/01/16 19:36:42;;;;;;;;;;;;;;;;;;4963384;28;19914;-79
2023/01/16 19:39:29;;;;;;;;;;;;;;;;;;4966881;28;19918;-79
2023/01/16 19:48:26;;;;;;;;;;;;;;;;;;4963158;28;20147;-79
2023/01/16 19:51:12;;;;;;;;;;;;;;;;;;4961159;28;19926;-78
2023/01/16 19:53:59;;;;;;;;;;;;;;;;;;4958064;28;19973;-78
2023/01/16 19:56:45;;;;;;;;;;;;;;;;;;5002982;28;19925;-78
2023/01/16 19:59:32;;;;;;;;;;;;;;;;;;5001021;28;19921;-78
2023/01/16 20:02:02;;;;;;;;;;;;;;;;;;5006908;28;20183;-78
2023/01/16 20:04:28;;;;;;;;;;;;;;;;;;5000938;28;19922;-78
2023/01/16 20:06:55;;;;;;;;;;;;;;;;;;4993545;28;20436;-78
2023/01/16 20:09:21;;;;;;;;;;;;;;;;;;4990766;28;19952;-78
2023/01/16 20:14:32;;;;;;;;;;;;;;;;;;4992952;28;20836;-79
2023/01/16 20:17:01;;;;;;;;;;;;;;;;;;4990804;28;20021;-79
2023/01/16 20:19:27;;;;;;;;;;;;;;;;;;4985613;28;19922;-77
2023/01/16 20:21:56;;;;;;;;;;;;;;;;;;4989045;28;19921;-77
2023/01/16 20:24:23;;;;;;;;;;;;;;;;;;5000280;28;19928;-78
2023/01/16 20:26:50;;;;;;;;;;;;;;;;;;4975780;28;19940;-77
2023/01/16 20:29:16;;;;;;;;;;;;;;;;;;4992891;28;19976;-78
2023/01/16 20:31:42;;;;;;;;;;;;;;;;;;4976470;28;20526;-78
2023/01/16 20:34:08;;;;;;;;;;;;;;;;;;4977360;28;19932;-78
2023/01/16 20:36:35;;;;;;;;;;;;;;;;;;5002934;28;19917;-78
2023/01/16 20:39:01;;;;;;;;;;;;;;;;;;4982202;28;20479;-78
2023/01/16 20:46:59;;;;;;;;;;;;;;;;;;4998779;28;19929;-78
2023/01/16 20:49:27;;;;;;;;;;;;;;;;;;4982752;28;19929;-77
2023/01/16 20:51:53;;;;;;;;;;;;;;;;;;4981856;28;19936;-77
2023/01/16 20:54:21;;;;;;;;;;;;;;;;;;4989863;28;19967;-77
2023/01/16 20:56:47;;;;;;;;;;;;;;;;;;4982024;28;19933;-77
2023/01/16 20:59:13;;;;;;;;;;;;;;;;;;4990534;28;19928;-77
2023/01/16 21:01:40;;;;;;;;;;;;;;;;;;4997265;28;19917;-77
2023/01/16 21:04:06;;;;;;;;;;;;;;;;;;4986238;28;20377;-77
2023/01/16 21:06:32;;;;;;;;;;;;;;;;;;4983962;28;19921;-78
2023/01/16 21:08:59;;;;;;;;;;;;;;;;;;4989924;28;19917;-78